Time;durP1;ratioP1;P1;durP2;ratioP2;P2;SDS_P1;SDS_P2;PMS_P1;PMS_P2;Temp;Humidity;BMP_temperature;BMP_pressure;BME280_temperature;BME280_humidity;BME280_pressure;Samples;Min_cycle;Max_cycle;Signal;HPM_P1;HPM_P2
2022/04/08 00:01:37;;;;;;;2.88;0.98;;;;;;;;;;5023438;28;20038;-82
2022/04/08 00:04:05;;;;;;;4.13;1.00;;;;;;;;;;5031493;28;20053;-80
2022/04/08 00:06:32;;;;;;;3.13;1.10;;;;;;;;;;5036246;28;20046;-81
2022/04/08 00:08:59;;;;;;;3.45;1.13;;;;;;;;;;5032447;28;20109;-81
2022/04/08 00:11:27;;;;;;;3.58;1.00;;;;;;;;;;5026811;28;20144;-80
2022/04/08 00:13:54;;;;;;;3.70;1.10;;;;;;;;;;5019647;28;20049;-80
2022/04/08 00:16:21;;;;;;;10.40;1.70;;;;;;;;;;5032265;28;20068;-81
2022/04/08 00:18:49;;;;;;;4.22;1.10;;;;;;;;;;5032891;28;20543;-81
2022/04/08 00:21:16;;;;;;;4.55;1.10;;;;;;;;;;5031542;28;20085;-82
2022/04/08 00:23:45;;;;;;;2.25;0.98;;;;;;;;;;5032206;28;20041;-81
2022/04/08 00:26:13;;;;;;;5.05;1.00;;;;;;;;;;5030958;28;20046;-80
2022/04/08 00:28:41;;;;;;;2.75;1.00;;;;;;;;;;5014095;28;20046;-80
2022/04/08 00:31:08;;;;;;;3.20;0.82;;;;;;;;;;5034882;28;20490;-81
2022/04/08 00:33:35;;;;;;;1.70;0.90;;;;;;;;;;5033189;28;20698;-81
2022/04/08 00:36:03;;;;;;;3.90;1.17;;;;;;;;;;5027164;28;20124;-79
2022/04/08 00:38:30;;;;;;;2.13;1.27;;;;;;;;;;5028256;28;20446;-80
2022/04/08 00:40:58;;;;;;;2.42;0.80;;;;;;;;;;5045530;22;20110;-82
2022/04/08 00:43:51;;;;;;;1.90;0.90;;;;;;;;;;4993417;28;20125;-83
2022/04/08 00:46:19;;;;;;;2.80;0.85;;;;;;;;;;5007159;28;20518;-83
2022/04/08 00:48:46;;;;;;;1.85;0.90;;;;;;;;;;5012582;28;20363;-84
2022/04/08 00:51:14;;;;;;;2.58;0.90;;;;;;;;;;4993859;28;20046;-83
2022/04/08 00:53:41;;;;;;;1.85;0.75;;;;;;;;;;5014035;28;20128;-84
2022/04/08 00:56:08;;;;;;;2.65;0.98;;;;;;;;;;5012378;28;20048;-83
2022/04/08 00:58:37;;;;;;;2.03;0.73;;;;;;;;;;4994641;28;20060;-83
2022/04/08 01:01:04;;;;;;;3.88;1.00;;;;;;;;;;4993738;28;20046;-83
2022/04/08 01:03:31;;;;;;;3.50;0.88;;;;;;;;;;5011842;28;20042;-83
2022/04/08 01:05:59;;;;;;;3.47;0.93;;;;;;;;;;5011862;28;20161;-84
2022/04/08 01:08:26;;;;;;;4.63;1.25;;;;;;;;;;4994005;28;20057;-83
2022/04/08 01:10:54;;;;;;;0.95;0.70;;;;;;;;;;5012062;28;20622;-83
2022/04/08 01:13:22;;;;;;;3.95;0.93;;;;;;;;;;4995909;28;20077;-83
2022/04/08 01:15:49;;;;;;;3.33;1.02;;;;;;;;;;5013462;28;20064;-83
2022/04/08 01:18:17;;;;;;;3.15;0.90;;;;;;;;;;5013495;28;20096;-83
2022/04/08 01:20:44;;;;;;;6.57;1.30;;;;;;;;;;4993115;28;20073;-83
2022/04/08 01:23:12;;;;;;;2.42;0.77;;;;;;;;;;5010465;28;20443;-83
2022/04/08 01:25:39;;;;;;;3.45;0.90;;;;;;;;;;5010002;28;20411;-83
2022/04/08 01:28:09;;;;;;;2.95;0.82;;;;;;;;;;4992626;28;20050;-83
2022/04/08 01:30:40;;;;;;;1.98;0.90;;;;;;;;;;4996353;28;20037;-83
2022/04/08 01:33:08;;;;;;;2.63;0.98;;;;;;;;;;5011964;28;20045;-83
2022/04/08 01:35:35;;;;;;;4.32;1.23;;;;;;;;;;4993055;28;20046;-83
2022/04/08 01:38:03;;;;;;;2.83;0.82;;;;;;;;;;4993055;28;20038;-82
2022/04/08 01:40:30;;;;;;;3.55;0.90;;;;;;;;;;4997028;28;20042;-82
2022/04/08 01:42:57;;;;;;;1.88;0.90;;;;;;;;;;4983307;28;20411;-83
2022/04/08 01:45:25;;;;;;;2.63;0.90;;;;;;;;;;5016348;28;20030;-83
2022/04/08 01:47:52;;;;;;;4.15;0.98;;;;;;;;;;4993260;28;20452;-83
2022/04/08 01:50:21;;;;;;;3.10;1.05;;;;;;;;;;5011045;28;20046;-83
2022/04/08 01:52:49;;;;;;;1.90;0.90;;;;;;;;;;4992616;28;20463;-83
2022/04/08 01:55:18;;;;;;;2.92;0.90;;;;;;;;;;4992741;28;20581;-83
2022/04/08 01:57:45;;;;;;;2.58;0.93;;;;;;;;;;4992831;28;20038;-83
2022/04/08 02:00:13;;;;;;;2.03;0.80;;;;;;;;;;4992723;28;20046;-84
2022/04/08 02:02:40;;;;;;;2.50;0.60;;;;;;;;;;4992134;28;20053;-83
2022/04/08 02:05:08;;;;;;;4.10;0.80;;;;;;;;;;4992313;28;20041;-83
2022/04/08 02:07:35;;;;;;;5.93;1.25;;;;;;;;;;4976417;28;20049;-83
2022/04/08 02:10:03;;;;;;;1.90;0.98;;;;;;;;;;4992174;28;20053;-83
2022/04/08 02:12:30;;;;;;;1.92;0.82;;;;;;;;;;4991317;28;20038;-84
2022/04/08 02:14:58;;;;;;;1.25;0.63;;;;;;;;;;4994411;28;20053;-83
2022/04/08 02:17:25;;;;;;;2.72;0.60;;;;;;;;;;4992392;28;20038;-83
2022/04/08 02:19:53;;;;;;;2.92;0.90;;;;;;;;;;5008680;28;20081;-84
2022/04/08 02:22:20;;;;;;;2.20;0.90;;;;;;;;;;4991441;28;20215;-84
2022/04/08 02:24:49;;;;;;;1.50;0.63;;;;;;;;;;5009474;28;20046;-84
2022/04/08 02:27:17;;;;;;;2.67;0.80;;;;;;;;;;4991296;28;20065;-83
2022/04/08 02:29:44;;;;;;;4.18;0.73;;;;;;;;;;4991995;28;20573;-83
2022/04/08 02:32:11;;;;;;;1.98;0.80;;;;;;;;;;4991194;28;20046;-83
2022/04/08 02:34:38;;;;;;;2.65;1.00;;;;;;;;;;5009285;28;20049;-84
2022/04/08 02:37:06;;;;;;;3.38;0.75;;;;;;;;;;4991620;28;20104;-84
2022/04/08 02:39:33;;;;;;;1.70;0.80;;;;;;;;;;4991491;28;20088;-83
2022/04/08 02:42:01;;;;;;;1.20;0.80;;;;;;;;;;4983148;28;20046;-83
2022/04/08 02:44:30;;;;;;;4.03;0.90;;;;;;;;;;4988096;28;20034;-83
2022/04/08 02:46:58;;;;;;;2.50;0.90;;;;;;;;;;4987075;28;20049;-83
2022/04/08 02:49:26;;;;;;;3.45;0.98;;;;;;;;;;4991619;28;20423;-83
2022/04/08 02:51:53;;;;;;;1.98;0.90;;;;;;;;;;4991240;28;20037;-83
2022/04/08 02:54:21;;;;;;;1.73;0.57;;;;;;;;;;4991100;28;20085;-82
2022/04/08 02:56:48;;;;;;;3.30;1.05;;;;;;;;;;5008752;28;20492;-83
2022/04/08 02:59:15;;;;;;;1.13;0.80;;;;;;;;;;5010829;28;20053;-82
2022/04/08 03:01:43;;;;;;;1.90;0.70;;;;;;;;;;4991343;28;20053;-83
2022/04/08 03:04:10;;;;;;;1.05;0.60;;;;;;;;;;5008650;28;20507;-83
2022/04/08 03:06:37;;;;;;;1.75;1.00;;;;;;;;;;4991948;28;20294;-84
2022/04/08 03:09:05;;;;;;;1.60;0.68;;;;;;;;;;5009625;28;20038;-83
2022/04/08 03:11:33;;;;;;;0.82;0.60;;;;;;;;;;4991015;28;20499;-83
2022/04/08 03:14:02;;;;;;;4.25;0.80;;;;;;;;;;5009170;28;20543;-84
2022/04/08 03:16:29;;;;;;;4.63;0.95;;;;;;;;;;4991634;28;20483;-83
2022/04/08 03:18:57;;;;;;;2.90;0.63;;;;;;;;;;4975951;28;20144;-83
2022/04/08 03:21:27;;;;;;;2.95;0.80;;;;;;;;;;5009170;28;20046;-84
2022/04/08 03:23:55;;;;;;;1.80;0.68;;;;;;;;;;5012448;28;20074;-82
2022/04/08 03:26:22;;;;;;;2.13;0.70;;;;;;;;;;5015485;28;20045;-83
2022/04/08 03:28:49;;;;;;;1.95;0.80;;;;;;;;;;5020409;28;20045;-84
2022/04/08 03:31:17;;;;;;;1.65;0.65;;;;;;;;;;5003930;28;20057;-84
2022/04/08 03:33:44;;;;;;;1.55;0.60;;;;;;;;;;5004371;28;20038;-84
2022/04/08 03:36:11;;;;;;;0.95;0.30;;;;;;;;;;5026772;28;20068;-84
2022/04/08 03:38:39;;;;;;;0.68;0.55;;;;;;;;;;5026486;28;20046;-84
2022/04/08 03:41:06;;;;;;;0.90;0.60;;;;;;;;;;5007748;28;20499;-84
2022/04/08 03:43:34;;;;;;;3.97;0.60;;;;;;;;;;5023859;28;20700;-84
2022/04/08 03:46:01;;;;;;;1.20;0.70;;;;;;;;;;4999450;28;20041;-83
2022/04/08 03:48:29;;;;;;;1.75;0.70;;;;;;;;;;4995764;28;20046;-84
2022/04/08 03:50:56;;;;;;;4.15;0.85;;;;;;;;;;5012065;28;20077;-83
2022/04/08 03:53:23;;;;;;;3.95;0.85;;;;;;;;;;5012301;28;20046;-84
2022/04/08 03:55:51;;;;;;;3.20;0.70;;;;;;;;;;4994395;28;20062;-83
2022/04/08 03:58:18;;;;;;;4.25;0.88;;;;;;;;;;4978749;28;20102;-84
2022/04/08 04:00:46;;;;;;;4.00;0.65;;;;;;;;;;4994470;28;20108;-84
2022/04/08 04:03:13;;;;;;;2.50;0.80;;;;;;;;;;5011480;28;20042;-83
2022/04/08 04:05:43;;;;;;;6.32;1.08;;;;;;;;;;4994425;28;20136;-83
2022/04/08 04:08:18;;;;;;;2.78;0.88;;;;;;;;;;4963557;28;20046;-84
2022/04/08 04:10:46;;;;;;;1.80;0.77;;;;;;;;;;5012647;28;20034;-84
2022/04/08 04:13:13;;;;;;;2.13;0.68;;;;;;;;;;5011600;28;20045;-84
2022/04/08 04:15:41;;;;;;;2.35;0.95;;;;;;;;;;4978282;28;20282;-84
2022/04/08 04:18:09;;;;;;;1.75;0.70;;;;;;;;;;5012568;28;20077;-84
2022/04/08 04:20:37;;;;;;;1.85;0.70;;;;;;;;;;5011898;28;20050;-84
2022/04/08 04:23:04;;;;;;;1.90;0.70;;;;;;;;;;5011919;28;20127;-84
2022/04/08 04:25:31;;;;;;;1.10;0.65;;;;;;;;;;5011999;28;20050;-84
2022/04/08 04:27:58;;;;;;;1.35;0.80;;;;;;;;;;4979651;28;20120;-84
2022/04/08 04:30:27;;;;;;;1.13;0.77;;;;;;;;;;5012077;28;20034;-84
2022/04/08 04:32:56;;;;;;;2.25;0.65;;;;;;;;;;4979005;28;20049;-83
2022/04/08 04:35:23;;;;;;;3.20;1.00;;;;;;;;;;4994429;28;20538;-83
2022/04/08 04:37:50;;;;;;;1.60;0.75;;;;;;;;;;4994896;28;20050;-83
2022/04/08 04:40:18;;;;;;;2.95;1.70;;;;;;;;;;5012391;28;20115;-84
2022/04/08 04:42:45;;;;;;;2.03;0.80;;;;;;;;;;4995748;28;20053;-85
2022/04/08 04:45:13;;;;;;;3.25;0.68;;;;;;;;;;4994695;28;20041;-87
2022/04/08 04:47:41;;;;;;;3.70;0.80;;;;;;;;;;5009095;28;20046;-84
2022/04/08 04:50:09;;;;;;;2.47;0.70;;;;;;;;;;4985628;28;20486;-85
2022/04/08 04:52:36;;;;;;;3.13;0.73;;;;;;;;;;5004286;28;20042;-84
2022/04/08 04:55:05;;;;;;;4.63;1.00;;;;;;;;;;4981133;28;20046;-84
2022/04/08 04:57:32;;;;;;;1.25;0.57;;;;;;;;;;4959527;28;20077;-84
2022/04/08 05:00:00;;;;;;;4.13;0.77;;;;;;;;;;5017335;28;20038;-84
2022/04/08 05:02:27;;;;;;;3.83;1.15;;;;;;;;;;4981859;28;20054;-83
2022/04/08 05:04:57;;;;;;;2.15;0.85;;;;;;;;;;5011586;28;20094;-84
2022/04/08 05:07:25;;;;;;;4.47;1.60;;;;;;;;;;5012466;28;20407;-84
2022/04/08 05:09:52;;;;;;;2.80;0.80;;;;;;;;;;5012566;28;20037;-83
2022/04/08 05:12:20;;;;;;;5.05;2.10;;;;;;;;;;5011574;28;20046;-84
2022/04/08 05:14:48;;;;;;;2.22;0.80;;;;;;;;;;4973593;28;20116;-84
2022/04/08 05:17:15;;;;;;;4.18;1.30;;;;;;;;;;5012159;28;20042;-84
2022/04/08 05:19:42;;;;;;;1.55;0.65;;;;;;;;;;5016146;28;20438;-85
2022/04/08 05:22:14;;;;;;;6.18;1.15;;;;;;;;;;5005108;28;20064;-84
2022/04/08 05:25:04;;;;;;;3.25;1.13;;;;;;;;;;4969603;28;20050;-84
2022/04/08 05:27:38;;;;;;;3.05;0.95;;;;;;;;;;5008644;28;20050;-84
2022/04/08 05:30:25;;;;;;;3.38;1.23;;;;;;;;;;5013938;28;20116;-84
2022/04/08 05:32:52;;;;;;;3.97;0.90;;;;;;;;;;5010532;28;20034;-84
2022/04/08 05:35:19;;;;;;;4.03;1.08;;;;;;;;;;5020376;28;20049;-83
2022/04/08 05:37:48;;;;;;;1.80;0.60;;;;;;;;;;4997551;28;20061;-84
2022/04/08 05:40:21;;;;;;;2.47;0.90;;;;;;;;;;4994055;28;20053;-84
2022/04/08 05:42:49;;;;;;;1.42;1.00;;;;;;;;;;5009676;28;20507;-83
2022/04/08 05:45:25;;;;;;;2.90;0.90;;;;;;;;;;5010804;28;20046;-84
2022/04/08 05:47:54;;;;;;;5.43;1.00;;;;;;;;;;5011842;28;20057;-84
2022/04/08 05:50:22;;;;;;;2.83;1.00;;;;;;;;;;5011939;28;20038;-85
2022/04/08 05:52:58;;;;;;;4.43;1.20;;;;;;;;;;4993615;28;20049;-84
2022/04/08 05:55:27;;;;;;;3.42;1.20;;;;;;;;;;5010802;28;20133;-84
2022/04/08 05:57:58;;;;;;;2.03;1.00;;;;;;;;;;5011524;28;20073;-84
2022/04/08 06:00:25;;;;;;;3.55;1.10;;;;;;;;;;5011348;28;20049;-84
2022/04/08 06:02:55;;;;;;;2.40;0.90;;;;;;;;;;5010512;28;20415;-83
2022/04/08 06:05:23;;;;;;;5.10;1.30;;;;;;;;;;5020059;28;20124;-84
2022/04/08 06:07:51;;;;;;;3.55;1.30;;;;;;;;;;5020163;28;20103;-84
2022/04/08 06:10:22;;;;;;;2.35;0.90;;;;;;;;;;5010852;28;20456;-83
2022/04/08 06:12:49;;;;;;;2.83;1.00;;;;;;;;;;5010624;28;20490;-84
2022/04/08 06:15:17;;;;;;;6.18;1.27;;;;;;;;;;5010650;28;20052;-85
2022/04/08 06:17:48;;;;;;;3.80;1.05;;;;;;;;;;4993646;28;20518;-83
2022/04/08 06:20:17;;;;;;;2.92;1.20;;;;;;;;;;4992595;28;20092;-84
2022/04/08 06:22:46;;;;;;;2.67;1.10;;;;;;;;;;4992932;28;20042;-84
2022/04/08 06:25:15;;;;;;;2.22;1.00;;;;;;;;;;5012338;28;20042;-83
2022/04/08 06:27:46;;;;;;;3.40;1.20;;;;;;;;;;4983366;28;20134;-84
2022/04/08 06:30:15;;;;;;;4.05;1.33;;;;;;;;;;4960553;28;20527;-85
2022/04/08 06:32:43;;;;;;;3.13;1.23;;;;;;;;;;4995929;28;20038;-84
2022/04/08 06:35:14;;;;;;;3.95;1.30;;;;;;;;;;5018936;28;20045;-84
2022/04/08 06:37:41;;;;;;;3.60;1.50;;;;;;;;;;4961202;28;20054;-84
2022/04/08 06:40:11;;;;;;;3.13;1.10;;;;;;;;;;5011248;28;20045;-84
2022/04/08 06:42:39;;;;;;;7.93;1.50;;;;;;;;;;4985481;23;20046;-85
2022/04/08 06:45:07;;;;;;;5.93;1.50;;;;;;;;;;4966601;28;20041;-83
2022/04/08 06:47:51;;;;;;;5.20;1.45;;;;;;;;;;4975316;28;20123;-85
2022/04/08 06:50:19;;;;;;;2.35;1.02;;;;;;;;;;4977912;28;20046;-84
2022/04/08 06:52:51;;;;;;;4.30;1.30;;;;;;;;;;4964644;28;20042;-85
2022/04/08 06:55:18;;;;;;;2.60;1.23;;;;;;;;;;4972653;28;20050;-84
2022/04/08 06:57:45;;;;;;;5.68;1.42;;;;;;;;;;4972370;28;20039;-83
2022/04/08 07:00:14;;;;;;;5.97;1.52;;;;;;;;;;4966864;28;20047;-83
2022/04/08 07:02:41;;;;;;;7.10;1.52;;;;;;;;;;4962088;28;20427;-84
2022/04/08 07:05:09;;;;;;;3.35;1.13;;;;;;;;;;4954266;28;20047;-84
2022/04/08 07:07:37;;;;;;;3.33;1.48;;;;;;;;;;4971270;28;20047;-83
2022/04/08 07:10:05;;;;;;;7.78;1.50;;;;;;;;;;4953077;28;20419;-83
2022/04/08 07:12:32;;;;;;;4.03;1.33;;;;;;;;;;4951767;28;20043;-83
2022/04/08 07:15:00;;;;;;;5.22;1.27;;;;;;;;;;4952675;28;20180;-83
2022/04/08 07:17:28;;;;;;;2.15;1.27;;;;;;;;;;4969476;28;20058;-84
2022/04/08 07:20:14;;;;;;;3.58;1.52;;;;;;;;;;4970448;28;20510;-84
2022/04/08 07:22:42;;;;;;;3.60;1.35;;;;;;;;;;4952930;28;20043;-84
2022/04/08 07:25:10;;;;;;;1.65;1.20;;;;;;;;;;4969357;28;20054;-84
2022/04/08 07:27:45;;;;;;;6.53;3.80;;;;;;;;;;4970141;28;20055;-83
2022/04/08 07:30:13;;;;;;;4.20;1.20;;;;;;;;;;4971207;28;20046;-82
2022/04/08 07:32:40;;;;;;;4.22;1.48;;;;;;;;;;4970612;28;20047;-82
2022/04/08 07:35:08;;;;;;;6.60;1.50;;;;;;;;;;4971405;28;20315;-83
2022/04/08 07:37:35;;;;;;;4.05;1.35;;;;;;;;;;4961357;28;20084;-83
2022/04/08 07:40:09;;;;;;;2.60;0.90;;;;;;;;;;4994187;28;20037;-82
2022/04/08 07:42:37;;;;;;;4.47;1.08;;;;;;;;;;4959104;28;20105;-81
2022/04/08 07:45:05;;;;;;;3.20;0.90;;;;;;;;;;4987734;28;20065;-83
2022/04/08 07:47:33;;;;;;;3.85;1.65;;;;;;;;;;4972368;28;20051;-82
2022/04/08 07:50:09;;;;;;;4.65;1.42;;;;;;;;;;5015968;23;20050;-75
2022/04/08 07:52:37;;;;;;;2.40;0.95;;;;;;;;;;4976179;28;20046;-77
2022/04/08 07:55:05;;;;;;;3.03;1.15;;;;;;;;;;4987264;28;20136;-75
2022/04/08 07:57:32;;;;;;;4.50;1.67;;;;;;;;;;5007088;28;20050;-75
2022/04/08 08:00:00;;;;;;;4.03;1.17;;;;;;;;;;4991012;28;20056;-77
2022/04/08 08:02:38;;;;;;;1.85;1.05;;;;;;;;;;5019379;28;20050;-76
2022/04/08 08:05:06;;;;;;;2.58;1.15;;;;;;;;;;5018488;28;20069;-75
2022/04/08 08:07:47;;;;;;;4.35;1.63;;;;;;;;;;5002013;28;20080;-76
2022/04/08 08:10:15;;;;;;;5.72;1.45;;;;;;;;;;5011490;28;20042;-76
2022/04/08 08:12:42;;;;;;;3.95;1.42;;;;;;;;;;5010079;28;20100;-76
2022/04/08 08:15:10;;;;;;;3.15;1.20;;;;;;;;;;5009504;28;20453;-74
2022/04/08 08:17:39;;;;;;;5.05;1.05;;;;;;;;;;4990706;28;20053;-75
2022/04/08 08:20:07;;;;;;;3.90;1.10;;;;;;;;;;4990962;28;20101;-76
2022/04/08 08:22:34;;;;;;;4.90;1.33;;;;;;;;;;4992324;28;20084;-75
2022/04/08 08:25:03;;;;;;;2.67;0.85;;;;;;;;;;4992087;28;20138;-74
2022/04/08 08:27:40;;;;;;;5.13;1.55;;;;;;;;;;4992143;28;20045;-75
2022/04/08 08:30:11;;;;;;;4.13;1.20;;;;;;;;;;5009784;28;20096;-76
2022/04/08 08:32:39;;;;;;;2.33;0.80;;;;;;;;;;4988625;28;20046;-75
2022/04/08 08:35:27;;;;;;;5.93;1.23;;;;;;;;;;4970979;28;20051;-76
2022/04/08 08:37:59;;;;;;;4.00;1.20;;;;;;;;;;5008629;28;20490;-76
2022/04/08 08:40:29;;;;;;;4.35;1.17;;;;;;;;;;5007404;28;20328;-77
2022/04/08 08:42:56;;;;;;;2.45;1.10;;;;;;;;;;5018031;28;20360;-74
2022/04/08 08:45:28;;;;;;;6.68;1.27;;;;;;;;;;5026444;28;20067;-74
2022/04/08 08:47:59;;;;;;;5.28;1.00;;;;;;;;;;5009696;28;20093;-76
2022/04/08 08:50:28;;;;;;;2.28;1.00;;;;;;;;;;5008677;28;20041;-76
2022/04/08 08:52:55;;;;;;;4.25;0.90;;;;;;;;;;4992262;28;20048;-75
2022/04/08 08:55:24;;;;;;;1.63;0.70;;;;;;;;;;5008912;28;20072;-76
2022/04/08 08:57:52;;;;;;;4.60;1.20;;;;;;;;;;4975647;28;20112;-74
2022/04/08 09:00:22;;;;;;;2.78;0.80;;;;;;;;;;5009088;28;20544;-74
2022/04/08 09:02:51;;;;;;;8.20;0.93;;;;;;;;;;5009052;28;20056;-75
2022/04/08 09:05:23;;;;;;;3.13;1.60;;;;;;;;;;4990414;28;20081;-75
2022/04/08 09:07:57;;;;;;;3.38;1.10;;;;;;;;;;5009150;28;20049;-73
2022/04/08 09:10:29;;;;;;;1.95;1.00;;;;;;;;;;5008634;28;20053;-76
2022/04/08 09:12:57;;;;;;;5.22;1.30;;;;;;;;;;5008776;28;20049;-74
2022/04/08 09:15:25;;;;;;;1.85;0.80;;;;;;;;;;5008839;28;20050;-76
2022/04/08 09:17:53;;;;;;;1.42;0.90;;;;;;;;;;5008881;28;20060;-76
2022/04/08 09:20:20;;;;;;;3.83;1.10;;;;;;;;;;4990138;28;20046;-74
2022/04/08 09:22:55;;;;;;;0.80;0.65;;;;;;;;;;5008704;28;20387;-74
2022/04/08 09:25:26;;;;;;;1.83;0.80;;;;;;;;;;5008844;28;20087;-76
2022/04/08 09:27:57;;;;;;;4.30;1.08;;;;;;;;;;5023894;28;20124;-74
2022/04/08 09:30:25;;;;;;;2.28;1.23;;;;;;;;;;5014365;28;20048;-74
2022/04/08 09:32:54;;;;;;;8.60;3.60;;;;;;;;;;5007035;28;20038;-76
2022/04/08 09:35:26;;;;;;;1.92;0.90;;;;;;;;;;5005598;28;20034;-73
2022/04/08 09:38:01;;;;;;;1.35;0.90;;;;;;;;;;5002828;28;20125;-76
2022/04/08 09:40:42;;;;;;;2.80;0.80;;;;;;;;;;5008646;28;20046;-75
2022/04/08 09:43:10;;;;;;;2.85;1.15;;;;;;;;;;5008517;28;20041;-78
2022/04/08 09:45:38;;;;;;;1.25;0.60;;;;;;;;;;5008310;28;20038;-74
2022/04/08 09:48:07;;;;;;;1.55;1.00;;;;;;;;;;5008694;28;20352;-76
2022/04/08 09:51:05;;;;;;;5.03;1.30;;;;;;;;;;4935309;28;20048;-74
2022/04/08 09:53:32;;;;;;;2.63;0.90;;;;;;;;;;4988518;28;20435;-75
2022/04/08 09:56:00;;;;;;;1.63;0.73;;;;;;;;;;4990802;28;20042;-74
2022/04/08 09:58:29;;;;;;;2.15;0.77;;;;;;;;;;4991384;28;20185;-74
2022/04/08 10:00:57;;;;;;;0.90;0.82;;;;;;;;;;5008263;28;20479;-76
2022/04/08 10:03:24;;;;;;;1.83;0.77;;;;;;;;;;4974275;28;20061;-76
2022/04/08 10:05:54;;;;;;;6.07;0.85;;;;;;;;;;4990175;28;20046;-75
2022/04/08 10:08:22;;;;;;;0.77;0.70;;;;;;;;;;5008206;28;20089;-75
2022/04/08 10:10:51;;;;;;;1.58;0.80;;;;;;;;;;4990558;28;20046;-76
2022/04/08 10:13:36;;;;;;;2.35;0.80;;;;;;;;;;5008237;28;20046;-76
2022/04/08 10:16:20;;;;;;;2.33;0.70;;;;;;;;;;5007440;28;20262;-77
2022/04/08 10:18:49;;;;;;;3.78;0.98;;;;;;;;;;5025849;28;20058;-77
2022/04/08 10:21:16;;;;;;;1.08;0.60;;;;;;;;;;5020634;28;20104;-74
2022/04/08 10:23:48;;;;;;;1.08;0.70;;;;;;;;;;4989753;28;20076;-77
2022/04/08 10:26:18;;;;;;;2.67;0.80;;;;;;;;;;4989910;28;20045;-78
2022/04/08 10:28:45;;;;;;;1.20;0.73;;;;;;;;;;4990501;28;20042;-75
2022/04/08 10:31:15;;;;;;;1.48;0.80;;;;;;;;;;4989849;28;20489;-77
2022/04/08 10:33:47;;;;;;;1.40;0.80;;;;;;;;;;5008237;28;20069;-76
2022/04/08 10:36:14;;;;;;;2.10;0.60;;;;;;;;;;5007590;28;20493;-76
2022/04/08 10:38:42;;;;;;;4.78;1.23;;;;;;;;;;4989726;28;20077;-75
2022/04/08 10:41:10;;;;;;;1.33;0.93;;;;;;;;;;5006314;28;20045;-77
2022/04/08 10:43:48;;;;;;;2.88;1.23;;;;;;;;;;5001077;28;20045;-75
2022/04/08 10:46:29;;;;;;;2.50;0.90;;;;;;;;;;4993622;28;20038;-77
2022/04/08 10:49:00;;;;;;;4.65;0.73;;;;;;;;;;4991498;28;20041;-75
2022/04/08 10:51:30;;;;;;;1.42;0.80;;;;;;;;;;4991758;28;20125;-75
2022/04/08 10:54:04;;;;;;;2.08;1.13;;;;;;;;;;4977576;28;20222;-74
2022/04/08 10:56:34;;;;;;;2.15;0.80;;;;;;;;;;4984453;28;20066;-79
2022/04/08 10:59:02;;;;;;;2.67;0.90;;;;;;;;;;4987710;28;20358;-76
2022/04/08 11:01:36;;;;;;;1.73;1.00;;;;;;;;;;4972864;28;20689;-74
2022/04/08 11:04:05;;;;;;;0.80;0.80;;;;;;;;;;4997722;28;20045;-75
2022/04/08 11:06:34;;;;;;;2.38;0.93;;;;;;;;;;4998006;28;20119;-76
2022/04/08 11:09:05;;;;;;;3.25;1.20;;;;;;;;;;4997835;28;20363;-75
2022/04/08 11:11:39;;;;;;;1.73;0.90;;;;;;;;;;4993160;28;20727;-74
2022/04/08 11:14:13;;;;;;;0.82;0.70;;;;;;;;;;4975320;28;20050;-76
2022/04/08 11:16:41;;;;;;;1.10;0.85;;;;;;;;;;4986601;28;20092;-78
2022/04/08 11:19:09;;;;;;;2.10;0.80;;;;;;;;;;4987963;28;20084;-74
2022/04/08 11:21:38;;;;;;;1.40;0.90;;;;;;;;;;4986352;28;20038;-75
2022/04/08 11:24:11;;;;;;;2.58;0.82;;;;;;;;;;4992989;28;20046;-77
2022/04/08 11:26:42;;;;;;;2.15;1.00;;;;;;;;;;4986557;28;20584;-75
2022/04/08 11:29:10;;;;;;;1.92;0.80;;;;;;;;;;4986747;28;20125;-76
2022/04/08 11:31:38;;;;;;;0.68;0.68;;;;;;;;;;4987939;28;20525;-78
2022/04/08 11:34:06;;;;;;;1.17;0.90;;;;;;;;;;4988614;28;20756;-74
2022/04/08 11:36:35;;;;;;;2.65;1.00;;;;;;;;;;4994342;28;20070;-76
2022/04/08 11:39:04;;;;;;;2.20;0.80;;;;;;;;;;4997778;28;20034;-75
2022/04/08 11:41:34;;;;;;;2.25;0.80;;;;;;;;;;4990950;28;20065;-76
2022/04/08 11:44:03;;;;;;;0.98;0.50;;;;;;;;;;4991459;28;20474;-74
2022/04/08 11:46:30;;;;;;;1.85;0.93;;;;;;;;;;4993908;28;20042;-75
2022/04/08 11:48:57;;;;;;;2.60;0.80;;;;;;;;;;4971375;28;20053;-76
2022/04/08 11:51:25;;;;;;;4.80;0.70;;;;;;;;;;4997075;28;20045;-75
2022/04/08 11:53:53;;;;;;;1.75;0.70;;;;;;;;;;4979958;28;20060;-74
2022/04/08 11:56:25;;;;;;;1.27;0.70;;;;;;;;;;4992949;28;20077;-74
2022/04/08 11:59:11;;;;;;;1.77;0.77;;;;;;;;;;4991679;28;20070;-75
2022/04/08 12:01:39;;;;;;;0.77;0.60;;;;;;;;;;4996439;28;20160;-74
2022/04/08 12:04:13;;;;;;;1.60;0.70;;;;;;;;;;4992358;28;20591;-76
2022/04/08 12:06:41;;;;;;;5.93;1.30;;;;;;;;;;4998853;28;20097;-74
2022/04/08 12:09:13;;;;;;;4.50;1.10;;;;;;;;;;4998885;28;20038;-74
2022/04/08 12:11:42;;;;;;;1.23;0.70;;;;;;;;;;4983628;28;20091;-77
2022/04/08 12:14:15;;;;;;;1.75;0.75;;;;;;;;;;5000885;28;20041;-74
2022/04/08 12:16:48;;;;;;;1.30;0.95;;;;;;;;;;4979329;28;20052;-75
2022/04/08 12:19:19;;;;;;;1.27;0.70;;;;;;;;;;4997677;28;20053;-75
2022/04/08 12:22:01;;;;;;;1.05;0.82;;;;;;;;;;4984147;28;20647;-76
2022/04/08 12:24:29;;;;;;;0.68;0.50;;;;;;;;;;4990979;28;20049;-74
2022/04/08 12:26:56;;;;;;;2.55;0.70;;;;;;;;;;4996339;28;20039;-74
2022/04/08 12:29:29;;;;;;;1.35;0.68;;;;;;;;;;4999416;28;20074;-73
2022/04/08 12:31:58;;;;;;;1.65;0.77;;;;;;;;;;4998672;28;20046;-74
2022/04/08 12:34:28;;;;;;;2.58;0.80;;;;;;;;;;5000453;28;20601;-75
2022/04/08 12:36:55;;;;;;;0.75;0.75;;;;;;;;;;4999698;28;20046;-76
2022/04/08 12:39:22;;;;;;;1.58;1.38;;;;;;;;;;4999915;28;20113;-75
2022/04/08 12:41:50;;;;;;;0.85;0.77;;;;;;;;;;4986342;23;20046;-77
2022/04/08 12:44:19;;;;;;;2.50;0.85;;;;;;;;;;4992533;28;20626;-80
2022/04/08 12:46:46;;;;;;;3.05;0.77;;;;;;;;;;4965449;28;20134;-78
2022/04/08 12:49:13;;;;;;;1.17;1.00;;;;;;;;;;4935319;28;20064;-81
2022/04/08 12:51:41;;;;;;;1.83;1.50;;;;;;;;;;4954703;28;20046;-79
2022/04/08 12:54:08;;;;;;;0.98;0.60;;;;;;;;;;4979849;28;20096;-78
2022/04/08 12:56:35;;;;;;;4.75;1.20;;;;;;;;;;4940155;28;20061;-80
2022/04/08 12:59:03;;;;;;;0.75;0.70;;;;;;;;;;4955948;28;20439;-80
2022/04/08 13:01:31;;;;;;;1.75;0.98;;;;;;;;;;4942948;28;20157;-79
2022/04/08 13:03:58;;;;;;;0.70;0.65;;;;;;;;;;4953901;28;20721;-78
2022/04/08 13:06:30;;;;;;;2.22;0.95;;;;;;;;;;4942418;28;20122;-81
2022/04/08 13:08:58;;;;;;;1.38;1.08;;;;;;;;;;4977595;28;20470;-80
2022/04/08 13:11:25;;;;;;;1.27;1.05;;;;;;;;;;4959288;28;20054;-79
2022/04/08 13:13:53;;;;;;;2.35;1.10;;;;;;;;;;4966101;28;20042;-80
2022/04/08 13:16:20;;;;;;;1.38;1.20;;;;;;;;;;4966429;28;20433;-81
2022/04/08 13:18:48;;;;;;;1.85;1.50;;;;;;;;;;4941302;28;20051;-80
2022/04/08 13:21:15;;;;;;;1.50;1.40;;;;;;;;;;4949470;28;20799;-80
2022/04/08 13:23:43;;;;;;;1.70;1.60;;;;;;;;;;4946074;28;20179;-81
2022/04/08 13:26:10;;;;;;;1.83;1.73;;;;;;;;;;4970573;28;20042;-81
2022/04/08 13:28:37;;;;;;;2.10;1.70;;;;;;;;;;4971631;28;20046;-80
2022/04/08 13:31:05;;;;;;;2.58;1.85;;;;;;;;;;4943979;28;20519;-77
2022/04/08 13:33:32;;;;;;;1.90;1.27;;;;;;;;;;4964374;28;20038;-77
2022/04/08 13:36:00;;;;;;;1.70;1.60;;;;;;;;;;4962910;28;20071;-78
2022/04/08 13:38:29;;;;;;;3.17;2.08;;;;;;;;;;4947302;28;20424;-78
2022/04/08 13:40:57;;;;;;;1.90;1.63;;;;;;;;;;4959060;28;20505;-77
2022/04/08 13:43:25;;;;;;;1.85;1.50;;;;;;;;;;4957362;28;20391;-78
2022/04/08 13:45:52;;;;;;;1.45;1.35;;;;;;;;;;4966514;28;20046;-80
2022/04/08 13:48:56;;;;;;;2.65;2.05;;;;;;;;;;4915916;29;20056;-79
2022/04/08 13:51:24;;;;;;;1.50;1.40;;;;;;;;;;4905937;29;20119;-78
2022/04/08 13:53:53;;;;;;;2.13;1.77;;;;;;;;;;4905467;29;20201;-78
2022/04/08 13:56:20;;;;;;;1.50;1.40;;;;;;;;;;4922531;29;20142;-78
2022/04/08 13:58:47;;;;;;;1.58;1.48;;;;;;;;;;4917816;29;20355;-78
2022/04/08 14:01:15;;;;;;;1.98;1.50;;;;;;;;;;4918402;29;20598;-80
2022/04/08 14:03:42;;;;;;;1.63;1.52;;;;;;;;;;4929387;28;20177;-79
2022/04/08 14:06:13;;;;;;;1.38;1.33;;;;;;;;;;4953504;28;20521;-79
2022/04/08 14:08:41;;;;;;;3.05;1.50;;;;;;;;;;4949761;28;20430;-81
2022/04/08 14:11:09;;;;;;;1.70;1.60;;;;;;;;;;4967962;28;20053;-77
2022/04/08 14:13:36;;;;;;;1.88;1.77;;;;;;;;;;4919023;28;20042;-80
2022/04/08 14:16:04;;;;;;;3.28;1.92;;;;;;;;;;4954766;28;20126;-80
2022/04/08 14:18:37;;;;;;;1.92;1.40;;;;;;;;;;4961691;28;20050;-81
2022/04/08 14:21:05;;;;;;;2.20;1.27;;;;;;;;;;4956179;28;20045;-81
2022/04/08 14:23:33;;;;;;;1.50;1.40;;;;;;;;;;4936241;28;20056;-82
2022/04/08 14:26:00;;;;;;;1.35;1.35;;;;;;;;;;4941507;28;20046;-78
2022/04/08 14:28:27;;;;;;;4.03;1.30;;;;;;;;;;4972882;28;20141;-81
2022/04/08 14:30:55;;;;;;;3.40;2.00;;;;;;;;;;4964517;28;20094;-79
2022/04/08 14:33:22;;;;;;;1.60;1.50;;;;;;;;;;4942562;28;20585;-78
2022/04/08 14:35:50;;;;;;;4.07;1.80;;;;;;;;;;4970835;28;20045;-80
2022/04/08 14:38:17;;;;;;;1.58;1.48;;;;;;;;;;4969750;28;20053;-81
2022/04/08 14:40:44;;;;;;;2.67;1.80;;;;;;;;;;4971058;28;20070;-78
2022/04/08 14:43:12;;;;;;;1.58;1.40;;;;;;;;;;4974784;28;20518;-81
2022/04/08 14:45:39;;;;;;;2.40;1.55;;;;;;;;;;4973855;28;20046;-78
2022/04/08 14:48:07;;;;;;;1.25;1.15;;;;;;;;;;4976060;28;20054;-82
2022/04/08 14:50:34;;;;;;;1.25;1.25;;;;;;;;;;4975547;28;20368;-82
2022/04/08 14:53:01;;;;;;;2.55;1.42;;;;;;;;;;4958005;28;20042;-79
2022/04/08 14:55:29;;;;;;;2.10;1.23;;;;;;;;;;4976952;28;20069;-79